SCL weather

Comodoro Arturo Merino Benítez International Airport
Santiago, Santiago Metropolitan Region, Chile

Public forecast

Using degrees Celsius for public forecast. Weather courtesy of forecast.io.

METAR (pilot weather report)

Retrieved 2019/03/22 06:00 UTC (43 minutes ago):

SCEL 220600Z VRB02KT 8000 NSC 14/03 Q1015 NOSIG

TAF (pilot weather forecast)

Retrieved 2019/03/22 06:00 UTC (43 minutes ago):

TAF SCEL 220423Z 2206/2306 16004KT CAVOK TX30/2219Z TN10/2211Z TEMPO 2208/2213 VRB02KT 7000 NSC BECMG 2216/2218 20012KT BECMG 2302/2304 13004KT